Time;durP1;ratioP1;P1;durP2;ratioP2;P2;SDS_P1;SDS_P2;PMS_P1;PMS_P2;Temp;Humidity;BMP_temperature;BMP_pressure;BME280_temperature;BME280_humidity;BME280_pressure;Samples;Min_cycle;Max_cycle;Signal;HPM_P1;HPM_P2
2023/02/09 00:01:20;;;;;;;5.67;2.90;;;;;;;;;;6207856;23;20176;-88
2023/02/09 00:04:26;;;;;;;6.90;2.87;;;;;;;;;;6208080;23;20168;-88
2023/02/09 00:07:31;;;;;;;6.57;2.80;;;;;;;;;;6208395;23;20221;-89
2023/02/09 00:10:39;;;;;;;8.17;2.97;;;;;;;;;;6206312;23;20168;-87
2023/02/09 00:13:45;;;;;;;8.87;3.20;;;;;;;;;;6207549;23;20188;-90
2023/02/09 00:16:51;;;;;;;6.70;2.90;;;;;;;;;;6203210;23;20171;-86
2023/02/09 00:19:56;;;;;;;8.00;2.73;;;;;;;;;;6206960;23;20177;-87
2023/02/09 00:23:02;;;;;;;5.60;2.80;;;;;;;;;;6205847;23;20612;-88
2023/02/09 00:26:09;;;;;;;5.83;2.67;;;;;;;;;;6202932;23;20171;-87
2023/02/09 00:29:21;;;;;;;6.00;2.30;;;;;;;;;;6205632;23;20175;-88
2023/02/09 00:32:28;;;;;;;7.37;2.70;;;;;;;;;;6204324;23;20256;-88
2023/02/09 00:35:33;;;;;;;4.67;2.37;;;;;;;;;;6202548;23;20168;-87
2023/02/09 00:38:38;;;;;;;8.27;2.97;;;;;;;;;;6206212;23;20208;-86
2023/02/09 00:45:10;;;;;;;6.03;2.80;;;;;;;;;;6205856;23;20195;-87
2023/02/09 00:48:16;;;;;;;6.90;2.80;;;;;;;;;;6203982;23;20152;-86
2023/02/09 00:51:22;;;;;;;5.00;2.60;;;;;;;;;;6205015;23;20172;-89
2023/02/09 00:54:27;;;;;;;4.80;2.43;;;;;;;;;;6205736;23;20187;-89
2023/02/09 00:57:33;;;;;;;4.67;1.70;;;;;;;;;;6206825;23;20216;-87
2023/02/09 01:00:40;;;;;;;6.13;2.60;;;;;;;;;;6205670;23;20171;-86
2023/02/09 01:03:45;;;;;;;6.90;2.67;;;;;;;;;;6197594;23;20666;-89
2023/02/09 01:06:50;;;;;;;6.53;3.00;;;;;;;;;;6199684;23;20172;-89
2023/02/09 01:09:55;;;;;;;7.33;3.17;;;;;;;;;;6202230;23;20163;-91
2023/02/09 01:13:01;;;;;;;6.93;2.83;;;;;;;;;;6203947;23;20168;-88
2023/02/09 01:16:11;;;;;;;9.10;3.00;;;;;;;;;;6204981;23;20610;-88
2023/02/09 01:19:20;;;;;;;5.53;2.80;;;;;;;;;;6203865;23;20200;-89
2023/02/09 01:22:25;;;;;;;8.43;3.10;;;;;;;;;;6201825;23;20167;-87
2023/02/09 01:25:31;;;;;;;5.80;2.73;;;;;;;;;;6196591;23;20224;-89
2023/02/09 01:28:36;;;;;;;7.87;3.20;;;;;;;;;;6195463;23;20176;-88
2023/02/09 01:31:43;;;;;;;7.00;3.00;;;;;;;;;;6197055;23;20172;-87
2023/02/09 01:34:52;;;;;;;15.13;5.23;;;;;;;;;;6197959;23;20183;-88
2023/02/09 01:37:56;;;;;;;7.03;3.23;;;;;;;;;;6197498;23;20211;-88
2023/02/09 01:41:01;;;;;;;10.93;3.40;;;;;;;;;;6197226;23;20294;-85
2023/02/09 01:44:28;;;;;;;9.00;3.90;;;;;;;;;;6196785;23;20212;-88
2023/02/09 01:47:37;;;;;;;7.37;3.57;;;;;;;;;;6196867;23;20219;-88
2023/02/09 01:50:45;;;;;;;6.43;2.93;;;;;;;;;;6197270;23;20168;-89
2023/02/09 01:53:50;;;;;;;10.10;3.53;;;;;;;;;;6197110;23;20194;-90
2023/02/09 01:56:58;;;;;;;10.37;4.13;;;;;;;;;;6196810;23;20171;-88
2023/02/09 02:00:11;;;;;;;8.77;3.30;;;;;;;;;;6197425;23;20148;-90
2023/02/09 02:03:22;;;;;;;9.13;3.70;;;;;;;;;;6198297;23;20171;-89
2023/02/09 02:06:27;;;;;;;8.03;3.40;;;;;;;;;;6196884;23;20172;-90
2023/02/09 02:09:33;;;;;;;9.67;3.60;;;;;;;;;;6195830;23;20179;-89
2023/02/09 02:12:39;;;;;;;8.00;3.37;;;;;;;;;;6193665;23;20194;-88
2023/02/09 02:15:49;;;;;;;9.63;3.50;;;;;;;;;;6195451;23;20152;-88
2023/02/09 02:19:20;;;;;;;10.33;3.43;;;;;;;;;;6193727;23;20231;-88
2023/02/09 02:22:48;;;;;;;7.93;3.17;;;;;;;;;;6195483;23;20611;-89
2023/02/09 02:26:09;;;;;;;8.23;3.43;;;;;;;;;;6194299;23;20164;-89
2023/02/09 02:29:30;;;;;;;10.70;3.33;;;;;;;;;;6194697;23;20168;-88
2023/02/09 02:32:58;;;;;;;10.77;3.30;;;;;;;;;;6195819;23;20187;-92
2023/02/09 02:36:08;;;;;;;7.53;3.40;;;;;;;;;;6194377;23;20171;-89
2023/02/09 02:39:18;;;;;;;7.47;3.23;;;;;;;;;;6196798;23;20191;-88
2023/02/09 02:45:49;;;;;;;8.87;3.17;;;;;;;;;;6195657;23;20192;-89
2023/02/09 02:48:58;;;;;;;6.63;3.03;;;;;;;;;;6194197;23;20168;-90
2023/02/09 02:52:06;;;;;;;7.47;2.90;;;;;;;;;;6194643;23;20171;-89
2023/02/09 02:55:14;;;;;;;9.00;3.17;;;;;;;;;;6194380;23;20171;-88
2023/02/09 02:58:21;;;;;;;7.07;3.13;;;;;;;;;;6195157;23;20235;-87
2023/02/09 03:01:32;;;;;;;6.80;3.17;;;;;;;;;;6195116;23;20167;-89
2023/02/09 03:04:40;;;;;;;8.33;3.40;;;;;;;;;;6194164;23;20497;-91
2023/02/09 03:07:45;;;;;;;9.13;3.37;;;;;;;;;;6195464;23;20171;-89
2023/02/09 03:10:50;;;;;;;9.30;3.60;;;;;;;;;;6195133;23;20195;-90
2023/02/09 03:14:13;;;;;;;8.80;3.50;;;;;;;;;;6194968;23;20167;-89
2023/02/09 03:17:24;;;;;;;6.67;3.40;;;;;;;;;;6195623;23;20167;-89
2023/02/09 03:20:34;;;;;;;6.67;3.20;;;;;;;;;;6194129;23;20171;-91
2023/02/09 03:23:42;;;;;;;7.47;3.57;;;;;;;;;;6194854;23;20176;-89
2023/02/09 03:26:50;;;;;;;6.07;2.93;;;;;;;;;;6196202;23;20164;-90
2023/02/09 03:29:57;;;;;;;5.30;2.93;;;;;;;;;;6194890;23;20172;-89
2023/02/09 03:33:04;;;;;;;6.10;3.00;;;;;;;;;;6195407;23;20493;-90
2023/02/09 03:36:14;;;;;;;7.37;3.00;;;;;;;;;;6194947;23;20219;-89
2023/02/09 03:39:19;;;;;;;7.90;3.17;;;;;;;;;;6194584;23;20262;-89
2023/02/09 03:42:24;;;;;;;8.27;2.93;;;;;;;;;;6196145;23;20212;-90
2023/02/09 03:45:29;;;;;;;9.57;3.27;;;;;;;;;;6195607;23;20239;-89
2023/02/09 03:48:34;;;;;;;7.50;3.07;;;;;;;;;;6195540;23;20244;-89
2023/02/09 03:51:41;;;;;;;8.10;3.17;;;;;;;;;;6194412;23;20176;-90
2023/02/09 03:54:47;;;;;;;13.03;3.37;;;;;;;;;;6195032;23;20189;-88
2023/02/09 03:57:52;;;;;;;11.40;3.33;;;;;;;;;;6194496;23;20492;-89
2023/02/09 04:01:10;;;;;;;7.27;3.13;;;;;;;;;;6194024;23;20789;-89
2023/02/09 04:04:15;;;;;;;9.70;3.77;;;;;;;;;;6195693;23;20510;-88
2023/02/09 04:07:21;;;;;;;9.60;3.83;;;;;;;;;;6198110;23;20168;-87
2023/02/09 04:10:27;;;;;;;14.83;3.50;;;;;;;;;;6193979;23;20179;-87
2023/02/09 04:13:32;;;;;;;11.87;3.27;;;;;;;;;;6195047;23;20171;-87
2023/02/09 04:16:37;;;;;;;12.53;4.00;;;;;;;;;;6195828;23;20168;-88
2023/02/09 04:19:44;;;;;;;12.90;3.87;;;;;;;;;;6194948;23;20279;-87
2023/02/09 04:22:51;;;;;;;7.63;3.57;;;;;;;;;;6197354;23;20300;-87
2023/02/09 04:25:56;;;;;;;16.73;3.73;;;;;;;;;;6196032;23;20204;-87
2023/02/09 04:29:00;;;;;;;10.33;3.63;;;;;;;;;;6195846;23;20175;-89
2023/02/09 04:32:06;;;;;;;9.07;3.07;;;;;;;;;;6196942;23;20247;-89
2023/02/09 04:35:11;;;;;;;8.37;2.97;;;;;;;;;;6196793;23;20252;-88
2023/02/09 04:38:18;;;;;;;10.53;2.97;;;;;;;;;;6193751;23;20195;-87
2023/02/09 04:41:23;;;;;;;8.80;3.67;;;;;;;;;;6194902;23;20188;-88
2023/02/09 04:44:28;;;;;;;10.10;3.50;;;;;;;;;;6194540;23;20168;-88
2023/02/09 04:47:36;;;;;;;9.93;3.63;;;;;;;;;;6195350;23;20163;-89
2023/02/09 04:50:41;;;;;;;11.47;3.63;;;;;;;;;;6195504;23;20168;-90
2023/02/09 04:53:47;;;;;;;9.23;3.83;;;;;;;;;;6193695;23;20176;-88
2023/02/09 04:59:33;;;;;;;7.90;3.57;;;;;;;;;;6193108;23;20179;-91
2023/02/09 05:00:17;;;;;;;11.03;3.37;;;;;;;;;;6195829;23;20203;-88
2023/02/09 05:03:24;;;;;;;10.50;3.67;;;;;;;;;;6195018;23;20188;-89
2023/02/09 05:06:29;;;;;;;13.53;3.83;;;;;;;;;;6194608;23;20255;-91
2023/02/09 05:09:35;;;;;;;12.70;3.40;;;;;;;;;;6194471;23;20187;-90
2023/02/09 05:12:40;;;;;;;11.00;3.43;;;;;;;;;;6197483;23;20191;-90
2023/02/09 05:15:46;;;;;;;8.70;3.50;;;;;;;;;;6195964;23;20248;-89
2023/02/09 05:19:21;;;;;;;8.10;3.40;;;;;;;;;;6195404;23;20239;-88
2023/02/09 05:22:26;;;;;;;7.90;3.30;;;;;;;;;;6194202;23;20171;-88
2023/02/09 05:25:34;;;;;;;8.67;3.87;;;;;;;;;;6195209;23;20152;-87
2023/02/09 05:28:44;;;;;;;15.83;4.13;;;;;;;;;;6194272;23;20172;-89
2023/02/09 05:31:49;;;;;;;8.80;3.10;;;;;;;;;;6196841;23;20643;-88
2023/02/09 05:34:54;;;;;;;13.63;3.57;;;;;;;;;;6195657;23;20219;-88
2023/02/09 05:37:59;;;;;;;10.93;4.17;;;;;;;;;;6194354;23;20168;-89
2023/02/09 05:41:06;;;;;;;10.03;3.67;;;;;;;;;;6193898;23;20207;-89
2023/02/09 05:44:11;;;;;;;17.33;4.30;;;;;;;;;;6196068;23;20643;-88
2023/02/09 05:47:17;;;;;;;8.63;3.73;;;;;;;;;;6195875;23;20183;-89
2023/02/09 05:50:22;;;;;;;13.30;4.70;;;;;;;;;;6196950;23;20288;-87
2023/02/09 05:53:32;;;;;;;9.43;3.90;;;;;;;;;;6195157;23;20172;-88
2023/02/09 05:56:39;;;;;;;9.27;3.17;;;;;;;;;;6196091;23;20236;-88
2023/02/09 05:59:45;;;;;;;16.77;3.97;;;;;;;;;;6194777;23;20209;-87
2023/02/09 06:02:55;;;;;;;8.30;3.30;;;;;;;;;;6195378;23;20159;-87
2023/02/09 06:06:00;;;;;;;10.93;4.07;;;;;;;;;;6197600;23;20168;-88
2023/02/09 06:09:05;;;;;;;8.00;2.60;;;;;;;;;;6199057;23;20215;-89
2023/02/09 06:12:12;;;;;;;11.67;3.53;;;;;;;;;;6197069;23;20190;-89
2023/02/09 06:15:17;;;;;;;12.37;2.97;;;;;;;;;;6194848;23;20168;-88
2023/02/09 06:18:22;;;;;;;8.57;3.13;;;;;;;;;;6196246;22;20235;-89
2023/02/09 06:21:30;;;;;;;13.53;3.70;;;;;;;;;;6213866;23;20237;-87
2023/02/09 06:24:36;;;;;;;5.43;2.50;;;;;;;;;;6230554;23;20246;-89
2023/02/09 06:27:43;;;;;;;3.87;2.17;;;;;;;;;;6227635;23;20202;-90
2023/02/09 06:30:50;;;;;;;12.90;3.87;;;;;;;;;;6228006;23;20171;-89
2023/02/09 06:34:00;;;;;;;9.53;3.37;;;;;;;;;;6228512;23;20216;-89
2023/02/09 06:37:14;;;;;;;23.33;4.23;;;;;;;;;;6211664;23;20166;-91
2023/02/09 06:40:19;;;;;;;11.73;4.33;;;;;;;;;;6210230;23;20194;-90
2023/02/09 06:43:26;;;;;;;10.47;3.50;;;;;;;;;;6228372;23;20191;-90
2023/02/09 06:46:31;;;;;;;20.03;4.07;;;;;;;;;;6204868;23;20167;-89
2023/02/09 06:49:36;;;;;;;15.67;4.97;;;;;;;;;;6224208;23;20167;-89
2023/02/09 06:52:45;;;;;;;14.50;4.83;;;;;;;;;;6206898;23;20175;-91
2023/02/09 06:55:50;;;;;;;10.53;4.03;;;;;;;;;;6208607;23;20171;-90
2023/02/09 06:58:56;;;;;;;17.83;4.30;;;;;;;;;;6227263;23;20175;-91
2023/02/09 07:02:05;;;;;;;21.90;4.07;;;;;;;;;;6210715;23;20163;-90
2023/02/09 07:05:14;;;;;;;11.77;4.50;;;;;;;;;;6213736;23;20171;-89
2023/02/09 07:11:38;;;;;;;15.17;4.20;;;;;;;;;;6230632;23;20560;-88
2023/02/09 07:14:45;;;;;;;17.90;3.80;;;;;;;;;;6213313;23;20255;-90
2023/02/09 07:17:51;;;;;;;15.77;4.47;;;;;;;;;;6211534;23;20179;-88
2023/02/09 07:20:58;;;;;;;13.00;3.60;;;;;;;;;;6214459;23;20195;-89
2023/02/09 07:24:11;;;;;;;10.33;4.37;;;;;;;;;;6229551;23;20162;-90
2023/02/09 07:27:16;;;;;;;18.33;3.20;;;;;;;;;;6212801;23;20252;-91
2023/02/09 07:30:23;;;;;;;14.37;3.40;;;;;;;;;;6228172;23;20160;-90
2023/02/09 07:33:29;;;;;;;14.47;4.03;;;;;;;;;;6227668;23;20266;-89
2023/02/09 07:36:34;;;;;;;13.47;4.50;;;;;;;;;;6213104;23;20203;-88
2023/02/09 07:39:40;;;;;;;8.53;3.57;;;;;;;;;;6227052;23;20194;-90
2023/02/09 07:42:46;;;;;;;22.07;4.67;;;;;;;;;;6213564;23;20175;-89
2023/02/09 07:45:54;;;;;;;11.67;3.73;;;;;;;;;;6211015;23;20171;-90
2023/02/09 07:48:59;;;;;;;13.53;4.23;;;;;;;;;;6211526;23;20674;-90
2023/02/09 07:52:04;;;;;;;12.30;4.87;;;;;;;;;;6213316;23;20170;-91
2023/02/09 07:55:09;;;;;;;14.07;3.97;;;;;;;;;;6228755;23;20248;-88
2023/02/09 07:58:17;;;;;;;13.00;5.67;;;;;;;;;;6212091;23;20240;-91
2023/02/09 08:01:26;;;;;;;15.07;5.50;;;;;;;;;;6211831;23;20180;-91
2023/02/09 08:04:32;;;;;;;14.77;5.17;;;;;;;;;;6228964;23;20168;-89
2023/02/09 08:07:37;;;;;;;11.63;4.53;;;;;;;;;;6212974;23;20171;-91
2023/02/09 08:10:42;;;;;;;21.33;6.53;;;;;;;;;;6229948;23;20237;-88
2023/02/09 08:13:52;;;;;;;10.97;4.53;;;;;;;;;;6213332;23;20147;-89
2023/02/09 08:17:22;;;;;;;20.43;7.57;;;;;;;;;;6212675;23;20174;-91
2023/02/09 08:20:30;;;;;;;23.00;7.03;;;;;;;;;;6230176;23;20190;-86
2023/02/09 08:23:35;;;;;;;36.10;9.80;;;;;;;;;;6231465;23;20507;-89
2023/02/09 08:26:41;;;;;;;18.27;6.10;;;;;;;;;;6211996;23;20172;-89
2023/02/09 08:29:50;;;;;;;14.77;5.33;;;;;;;;;;6227130;23;20168;-89
2023/02/09 08:32:59;;;;;;;15.27;5.60;;;;;;;;;;6213549;23;20167;-87
2023/02/09 08:36:04;;;;;;;24.07;7.30;;;;;;;;;;6231472;23;20186;-87
2023/02/09 08:39:10;;;;;;;23.50;8.20;;;;;;;;;;6212004;23;20228;-89
2023/02/09 08:42:15;;;;;;;17.97;6.27;;;;;;;;;;6212453;23;20180;-89
2023/02/09 08:45:20;;;;;;;31.33;8.00;;;;;;;;;;6212141;23;20170;-90
2023/02/09 08:48:27;;;;;;;24.93;7.73;;;;;;;;;;6229666;23;20245;-88
2023/02/09 08:51:33;;;;;;;15.83;7.03;;;;;;;;;;6212346;23;20183;-89
2023/02/09 08:54:38;;;;;;;27.67;9.20;;;;;;;;;;6210624;23;20170;-91
2023/02/09 08:57:43;;;;;;;21.23;7.30;;;;;;;;;;6210938;23;20230;-90
2023/02/09 09:00:48;;;;;;;19.03;6.83;;;;;;;;;;6211255;23;20194;-91
2023/02/09 09:03:55;;;;;;;27.77;8.40;;;;;;;;;;6212435;23;20265;-90
2023/02/09 09:07:00;;;;;;;29.97;8.20;;;;;;;;;;6215641;23;20174;-89
2023/02/09 09:10:07;;;;;;;20.33;6.80;;;;;;;;;;6230041;23;20244;-91
2023/02/09 09:13:14;;;;;;;18.53;6.43;;;;;;;;;;6210923;23;20626;-90
2023/02/09 09:16:21;;;;;;;25.40;7.73;;;;;;;;;;6211660;23;20171;-90
2023/02/09 09:19:28;;;;;;;22.27;7.83;;;;;;;;;;6211023;23;20245;-90
2023/02/09 09:22:33;;;;;;;19.33;6.00;;;;;;;;;;6212408;23;20167;-89
2023/02/09 09:25:39;;;;;;;24.73;7.60;;;;;;;;;;6212346;23;20250;-89
2023/02/09 09:28:44;;;;;;;19.97;6.93;;;;;;;;;;6212867;23;20207;-90
2023/02/09 09:31:49;;;;;;;18.63;6.30;;;;;;;;;;6231452;23;20230;-90
2023/02/09 09:34:57;;;;;;;34.00;6.80;;;;;;;;;;6213075;23;20171;-90
2023/02/09 09:38:03;;;;;;;25.63;6.73;;;;;;;;;;6212087;23;20170;-89
2023/02/09 09:41:19;;;;;;;17.63;5.57;;;;;;;;;;6228842;23;20270;-89
2023/02/09 09:44:28;;;;;;;15.13;5.07;;;;;;;;;;6229102;23;20218;-89
2023/02/09 09:47:35;;;;;;;16.53;5.77;;;;;;;;;;6213834;23;20167;-91
2023/02/09 09:50:45;;;;;;;14.67;5.00;;;;;;;;;;6211092;23;20667;-90
2023/02/09 09:53:52;;;;;;;12.07;4.97;;;;;;;;;;6227641;23;20218;-92
2023/02/09 09:56:57;;;;;;;14.27;5.83;;;;;;;;;;6229457;23;20175;-89
2023/02/09 10:00:03;;;;;;;15.37;6.63;;;;;;;;;;6230738;23;20191;-89
2023/02/09 10:03:14;;;;;;;21.13;6.40;;;;;;;;;;6229814;23;20179;-89
2023/02/09 10:06:23;;;;;;;16.37;5.60;;;;;;;;;;6227857;23;20549;-90
2023/02/09 10:09:34;;;;;;;29.03;8.90;;;;;;;;;;6230003;23;20179;-89
2023/02/09 10:12:44;;;;;;;13.10;5.10;;;;;;;;;;6210336;23;20236;-89
2023/02/09 10:15:50;;;;;;;15.07;5.10;;;;;;;;;;6210213;23;20221;-91
2023/02/09 10:18:55;;;;;;;19.73;7.10;;;;;;;;;;6210702;23;20199;-90
2023/02/09 10:22:02;;;;;;;13.73;5.60;;;;;;;;;;6211215;23;20171;-92
2023/02/09 10:25:33;;;;;;;16.27;6.43;;;;;;;;;;6227995;23;20183;-89
2023/02/09 10:28:40;;;;;;;25.00;6.53;;;;;;;;;;6227066;23;20172;-90
2023/02/09 10:31:49;;;;;;;13.33;4.97;;;;;;;;;;6229479;23;20171;-88
2023/02/09 10:34:55;;;;;;;19.73;5.20;;;;;;;;;;6210642;23;20171;-89
2023/02/09 10:38:04;;;;;;;14.63;5.77;;;;;;;;;;6228397;23;20170;-87
2023/02/09 10:41:14;;;;;;;11.73;5.03;;;;;;;;;;6229223;23;20235;-90
2023/02/09 10:44:21;;;;;;;17.67;5.73;;;;;;;;;;6229262;23;20171;-90
2023/02/09 10:47:30;;;;;;;16.27;5.67;;;;;;;;;;6229896;23;20650;-88
2023/02/09 10:50:48;;;;;;;16.27;5.87;;;;;;;;;;6212132;23;20171;-88
2023/02/09 10:54:00;;;;;;;13.77;5.47;;;;;;;;;;6227908;23;20175;-89
2023/02/09 10:57:20;;;;;;;14.47;5.03;;;;;;;;;;6230823;23;20614;-89
2023/02/09 11:04:20;;;;;;;15.77;5.00;;;;;;;;;;6212957;23;20215;-88
2023/02/09 11:07:29;;;;;;;15.87;5.00;;;;;;;;;;6229722;23;20175;-89
2023/02/09 11:10:39;;;;;;;17.93;5.40;;;;;;;;;;6213509;23;20649;-88
2023/02/09 11:13:45;;;;;;;13.97;5.20;;;;;;;;;;6214108;23;20249;-89
2023/02/09 11:16:55;;;;;;;17.43;5.17;;;;;;;;;;6212260;23;20167;-89
2023/02/09 11:20:24;;;;;;;15.80;6.10;;;;;;;;;;6230755;23;20753;-87
2023/02/09 11:23:37;;;;;;;18.23;5.40;;;;;;;;;;6215153;23;20170;-92
2023/02/09 11:26:49;;;;;;;17.73;4.93;;;;;;;;;;6214909;23;20250;-87
2023/02/09 11:29:59;;;;;;;20.83;5.27;;;;;;;;;;6216352;23;20167;-90
2023/02/09 11:33:08;;;;;;;17.47;4.73;;;;;;;;;;6234744;23;20155;-89
2023/02/09 11:36:22;;;;;;;31.27;7.40;;;;;;;;;;6234987;23;20195;-88
2023/02/09 11:39:33;;;;;;;13.03;4.63;;;;;;;;;;6218491;23;20211;-90
2023/02/09 11:42:45;;;;;;;8.13;3.73;;;;;;;;;;6217272;23;20163;-89
2023/02/09 11:45:59;;;;;;;8.10;3.57;;;;;;;;;;6218746;23;20148;-89
2023/02/09 11:49:16;;;;;;;7.50;3.47;;;;;;;;;;6218409;23;20215;-89
2023/02/09 11:52:24;;;;;;;10.30;3.90;;;;;;;;;;6223961;23;20182;-87
2023/02/09 11:55:32;;;;;;;31.77;5.83;;;;;;;;;;6232784;23;20219;-89
2023/02/09 11:58:42;;;;;;;11.07;3.83;;;;;;;;;;6216813;23;20605;-89
2023/02/09 12:02:15;;;;;;;13.30;6.47;;;;;;;;;;6215315;23;20268;-90
2023/02/09 12:05:21;;;;;;;13.60;4.70;;;;;;;;;;6216267;23;20242;-89
2023/02/09 12:08:34;;;;;;;10.80;4.20;;;;;;;;;;6233563;23;20175;-90
2023/02/09 12:11:47;;;;;;;31.33;4.53;;;;;;;;;;6215413;23;20227;-89
2023/02/09 12:14:57;;;;;;;10.00;4.03;;;;;;;;;;6215566;23;20210;-87
2023/02/09 12:18:07;;;;;;;12.40;4.30;;;;;;;;;;6213388;23;20176;-90
2023/02/09 12:21:13;;;;;;;11.33;4.50;;;;;;;;;;6230945;23;20848;-89
2023/02/09 12:28:05;;;;;;;12.80;4.63;;;;;;;;;;6230622;23;20195;-89
2023/02/09 12:31:19;;;;;;;9.33;3.87;;;;;;;;;;6216755;23;20176;-92
2023/02/09 12:34:29;;;;;;;9.60;4.07;;;;;;;;;;6234633;23;20167;-91
2023/02/09 12:41:13;;;;;;;9.63;4.33;;;;;;;;;;6234048;23;20191;-89
2023/02/09 12:44:40;;;;;;;19.97;5.73;;;;;;;;;;6232020;23;20167;-91
2023/02/09 12:47:57;;;;;;;12.67;4.30;;;;;;;;;;6214633;23;20175;-91
2023/02/09 12:51:02;;;;;;;16.07;4.37;;;;;;;;;;6232184;23;20164;-88
2023/02/09 12:54:26;;;;;;;14.00;3.80;;;;;;;;;;6230126;23;20178;-90
2023/02/09 12:57:53;;;;;;;12.83;4.60;;;;;;;;;;6214436;23;20167;-90
2023/02/09 13:01:01;;;;;;;12.97;5.13;;;;;;;;;;6214833;23;20195;-89
2023/02/09 13:04:09;;;;;;;15.33;5.57;;;;;;;;;;6232653;23;20171;-88
2023/02/09 13:07:19;;;;;;;11.50;4.50;;;;;;;;;;6232653;23;20218;-90
2023/02/09 13:13:49;;;;;;;15.93;5.07;;;;;;;;;;6214132;23;20175;-91
2023/02/09 13:17:02;;;;;;;10.80;4.40;;;;;;;;;;6232686;23;20154;-91
2023/02/09 13:24:02;;;;;;;11.80;4.50;;;;;;;;;;6214528;23;20220;-89
2023/02/09 13:27:17;;;;;;;13.70;4.93;;;;;;;;;;6213874;23;20175;-89
2023/02/09 13:30:28;;;;;;;12.87;4.53;;;;;;;;;;6231186;23;20175;-89
2023/02/09 13:33:38;;;;;;;13.77;5.10;;;;;;;;;;6213019;23;20159;-90
2023/02/09 13:36:46;;;;;;;14.60;5.03;;;;;;;;;;6213708;23;20167;-92
2023/02/09 13:40:07;;;;;;;14.23;5.57;;;;;;;;;;6230977;23;20232;-89
2023/02/09 13:43:17;;;;;;;18.67;4.53;;;;;;;;;;6230522;23;20218;-88
2023/02/09 13:46:27;;;;;;;13.63;5.23;;;;;;;;;;6215545;23;20183;-89
2023/02/09 13:49:32;;;;;;;16.77;4.57;;;;;;;;;;6232201;23;20191;-90
2023/02/09 13:52:38;;;;;;;9.87;4.20;;;;;;;;;;6212682;23;20217;-92
2023/02/09 13:55:46;;;;;;;11.13;5.07;;;;;;;;;;6212602;23;20590;-91
2023/02/09 13:58:52;;;;;;;14.60;5.47;;;;;;;;;;6228267;23;20683;-88
2023/02/09 14:02:01;;;;;;;19.10;6.10;;;;;;;;;;6231446;23;20194;-88
2023/02/09 14:05:08;;;;;;;16.93;5.90;;;;;;;;;;6213696;23;20178;-89
2023/02/09 14:08:14;;;;;;;13.97;5.63;;;;;;;;;;6213772;23;20159;-90
2023/02/09 14:11:27;;;;;;;19.90;6.40;;;;;;;;;;6216786;23;20254;-91
2023/02/09 14:17:56;;;;;;;21.83;6.57;;;;;;;;;;6216045;23;20258;-94
2023/02/09 14:21:23;;;;;;;25.47;6.50;;;;;;;;;;6233570;23;20210;-90
2023/02/09 14:24:29;;;;;;;32.60;6.50;;;;;;;;;;6214943;23;20338;-90
2023/02/09 14:27:36;;;;;;;15.10;6.23;;;;;;;;;;6214465;23;20172;-90
2023/02/09 14:30:50;;;;;;;17.00;7.80;;;;;;;;;;6214817;23;20173;-89
2023/02/09 14:33:57;;;;;;;20.70;6.63;;;;;;;;;;6231148;23;20551;-92
2023/02/09 14:37:04;;;;;;;19.57;6.30;;;;;;;;;;6214657;23;20172;-89
2023/02/09 14:40:21;;;;;;;15.73;6.30;;;;;;;;;;6214093;23;20241;-89
2023/02/09 14:43:28;;;;;;;27.13;6.27;;;;;;;;;;6214609;23;20158;-90
2023/02/09 14:46:49;;;;;;;21.00;6.50;;;;;;;;;;6231939;23;20187;-90
2023/02/09 14:49:54;;;;;;;17.23;6.50;;;;;;;;;;6213860;23;20160;-91
2023/02/09 14:53:04;;;;;;;12.03;5.80;;;;;;;;;;6213090;23;20171;-89
2023/02/09 14:56:23;;;;;;;17.83;6.70;;;;;;;;;;6213053;23;20230;-88
2023/02/09 14:59:30;;;;;;;20.07;7.87;;;;;;;;;;6213846;23;20159;-89
2023/02/09 15:02:37;;;;;;;17.00;7.50;;;;;;;;;;6230121;23;20199;-87
2023/02/09 15:05:43;;;;;;;23.73;6.43;;;;;;;;;;6213300;23;20245;-88
2023/02/09 15:08:48;;;;;;;18.47;5.97;;;;;;;;;;6231348;23;20154;-90
2023/02/09 15:12:05;;;;;;;17.13;7.07;;;;;;;;;;6230711;23;20235;-88
2023/02/09 15:15:16;;;;;;;25.27;7.67;;;;;;;;;;6231781;23;20685;-89
2023/02/09 15:18:22;;;;;;;12.97;6.17;;;;;;;;;;6212735;23;20194;-89
2023/02/09 15:21:28;;;;;;;16.80;6.73;;;;;;;;;;6209994;23;20210;-89
2023/02/09 15:24:33;;;;;;;35.73;11.30;;;;;;;;;;6230439;23;20171;-90
2023/02/09 15:27:41;;;;;;;17.00;6.63;;;;;;;;;;6211312;23;20167;-90
2023/02/09 15:30:47;;;;;;;21.40;6.37;;;;;;;;;;6228190;23;20159;-89
2023/02/09 15:33:53;;;;;;;27.83;6.93;;;;;;;;;;6230311;23;20167;-90
2023/02/09 15:37:00;;;;;;;19.97;6.50;;;;;;;;;;6212266;23;20163;-88
2023/02/09 15:47:47;;;;;;;16.53;6.80;;;;;;;;;;6215855;23;20167;-90
2023/02/09 15:50:39;;;;;;;25.90;10.53;;;;;;;;;;6211654;23;20187;-89
2023/02/09 15:53:45;;;;;;;27.40;9.43;;;;;;;;;;6209651;23;20237;-90
2023/02/09 15:56:50;;;;;;;28.03;9.03;;;;;;;;;;6227056;23;20175;-87
2023/02/09 15:59:55;;;;;;;23.93;7.43;;;;;;;;;;6210039;23;20226;-90
2023/02/09 16:03:02;;;;;;;31.83;8.33;;;;;;;;;;6228301;23;20191;-87
2023/02/09 16:06:13;;;;;;;23.20;8.43;;;;;;;;;;6231637;23;20212;-89
2023/02/09 16:09:19;;;;;;;32.10;10.20;;;;;;;;;;6212070;23;20171;-91
2023/02/09 16:12:25;;;;;;;21.33;8.23;;;;;;;;;;6214400;23;20171;-89
2023/02/09 16:15:30;;;;;;;24.13;7.70;;;;;;;;;;6214254;23;20167;-92
2023/02/09 16:19:00;;;;;;;28.80;8.47;;;;;;;;;;6212631;23;20283;-90
2023/02/09 16:22:08;;;;;;;22.43;8.30;;;;;;;;;;6215226;23;20214;-91
2023/02/09 16:25:24;;;;;;;32.27;10.70;;;;;;;;;;6233422;23;20162;-92
2023/02/09 16:28:29;;;;;;;23.33;7.70;;;;;;;;;;6215100;23;20171;-87
2023/02/09 16:31:34;;;;;;;23.53;7.87;;;;;;;;;;6229056;23;20171;-89
2023/02/09 16:34:40;;;;;;;22.93;7.87;;;;;;;;;;6230011;23;20159;-89
2023/02/09 16:37:48;;;;;;;27.73;7.73;;;;;;;;;;6214358;23;20199;-86
2023/02/09 16:40:55;;;;;;;19.30;6.97;;;;;;;;;;6233157;23;20170;-90
2023/02/09 16:44:01;;;;;;;18.20;7.80;;;;;;;;;;6234446;23;20214;-91
2023/02/09 16:47:11;;;;;;;22.13;7.40;;;;;;;;;;6235801;23;20171;-90
2023/02/09 16:50:21;;;;;;;18.77;7.60;;;;;;;;;;6217165;23;20210;-90
2023/02/09 16:53:32;;;;;;;24.03;8.90;;;;;;;;;;6235296;23;20171;-89
2023/02/09 16:56:37;;;;;;;25.43;8.13;;;;;;;;;;6232570;23;20171;-88
2023/02/09 16:59:46;;;;;;;23.50;8.13;;;;;;;;;;6233194;23;20163;-91
2023/02/09 17:03:06;;;;;;;28.93;8.63;;;;;;;;;;6213523;23;20191;-90
2023/02/09 17:06:15;;;;;;;23.10;7.43;;;;;;;;;;6213356;23;20175;-90
2023/02/09 17:09:22;;;;;;;18.90;6.73;;;;;;;;;;6217719;23;20171;-89
2023/02/09 17:12:27;;;;;;;23.37;8.03;;;;;;;;;;6213563;23;20206;-90
2023/02/09 17:15:38;;;;;;;24.67;8.73;;;;;;;;;;6230540;23;20170;-90
2023/02/09 17:18:51;;;;;;;23.53;9.47;;;;;;;;;;6230122;23;20158;-88
2023/02/09 17:21:59;;;;;;;36.00;9.50;;;;;;;;;;6230300;23;20538;-87
2023/02/09 17:25:06;;;;;;;26.93;8.97;;;;;;;;;;6213794;23;20670;-90
2023/02/09 17:28:11;;;;;;;29.33;9.30;;;;;;;;;;6232811;23;20250;-89
2023/02/09 17:31:18;;;;;;;26.37;10.77;;;;;;;;;;6235040;23;20163;-89
2023/02/09 17:34:25;;;;;;;25.20;9.80;;;;;;;;;;6219588;23;20155;-88
2023/02/09 17:37:32;;;;;;;28.03;8.90;;;;;;;;;;6219790;23;20191;-89
2023/02/09 17:40:39;;;;;;;23.73;8.80;;;;;;;;;;6218398;23;20190;-89
2023/02/09 17:43:45;;;;;;;24.50;8.57;;;;;;;;;;6218822;23;20187;-90
2023/02/09 17:46:51;;;;;;;23.37;9.60;;;;;;;;;;6235947;23;20168;-90
2023/02/09 17:49:57;;;;;;;30.83;10.40;;;;;;;;;;6219074;23;20170;-89
2023/02/09 17:53:03;;;;;;;32.07;10.20;;;;;;;;;;6218678;23;20221;-88
2023/02/09 17:56:13;;;;;;;25.40;10.40;;;;;;;;;;6220629;23;20168;-88
2023/02/09 17:59:20;;;;;;;32.00;9.17;;;;;;;;;;6202524;23;20179;-88
2023/02/09 18:06:01;;;;;;;122.93;41.93;;;;;;;;;;6219741;23;20187;-86
2023/02/09 18:09:13;;;;;;;45.40;15.60;;;;;;;;;;6222252;23;20159;-90
2023/02/09 18:12:22;;;;;;;35.83;13.60;;;;;;;;;;6221390;23;20179;-88
2023/02/09 18:15:29;;;;;;;33.57;12.67;;;;;;;;;;6219368;23;20200;-88
2023/02/09 18:18:36;;;;;;;36.23;12.97;;;;;;;;;;6202064;23;20151;-92
2023/02/09 18:21:52;;;;;;;39.33;13.73;;;;;;;;;;6217778;23;20280;-89
2023/02/09 18:25:00;;;;;;;33.13;11.80;;;;;;;;;;6221263;23;20179;-89
2023/02/09 18:28:10;;;;;;;30.97;11.33;;;;;;;;;;6220069;23;20219;-90
2023/02/09 18:31:16;;;;;;;33.07;11.83;;;;;;;;;;6220013;23;20186;-90
2023/02/09 18:37:42;;;;;;;40.70;12.40;;;;;;;;;;6221943;23;20199;-89
2023/02/09 18:40:47;;;;;;;34.87;12.67;;;;;;;;;;6221152;23;20155;-88
2023/02/09 18:43:56;;;;;;;43.00;14.17;;;;;;;;;;6220738;23;20211;-89
2023/02/09 18:47:09;;;;;;;40.13;13.77;;;;;;;;;;6220272;23;20190;-88
2023/02/09 18:50:17;;;;;;;43.00;15.30;;;;;;;;;;6220447;23;20166;-88
2023/02/09 18:53:24;;;;;;;43.73;15.87;;;;;;;;;;6223242;23;20163;-90
2023/02/09 18:56:29;;;;;;;54.23;17.93;;;;;;;;;;6212928;23;20171;-90
2023/02/09 18:59:54;;;;;;;32.33;13.17;;;;;;;;;;6212726;23;20167;-88
2023/02/09 19:03:01;;;;;;;51.87;15.47;;;;;;;;;;6213901;23;20277;-90
2023/02/09 19:06:10;;;;;;;52.70;16.70;;;;;;;;;;6213768;23;20171;-89
2023/02/09 19:09:15;;;;;;;38.40;13.27;;;;;;;;;;6213281;23;20175;-87
2023/02/09 19:12:20;;;;;;;53.50;16.57;;;;;;;;;;6213375;23;20170;-88
2023/02/09 19:15:26;;;;;;;46.47;14.50;;;;;;;;;;6213596;23;20235;-88
2023/02/09 19:18:46;;;;;;;45.17;14.10;;;;;;;;;;6214097;23;20191;-89
2023/02/09 19:21:53;;;;;;;34.37;12.73;;;;;;;;;;6214617;23;20197;-85
2023/02/09 19:24:59;;;;;;;35.03;13.23;;;;;;;;;;6214275;23;20167;-90